aviador You're here:

KOVE Decoded Metar

OROVILLE in CA, USA
Report Time2017-06-25 12:53:00
UTC Time2017-06-25 13:46:05
Flight Rules vfr VFR
Wind160° at 06 kt
W.Decomp.*RWY 13: 5.8 kt HW 1.5 kt RCW
RWY 20: 3.4 kt HW 5 kt LCW
W.Rank160° ranks 1
Current wind is below 160° avg. (9.3)
Visibility9999 m
Phenomena:N/A
Clouds:N/A
Expected CloudBase > 2,800 ft AGL from Temp-Dew spread
CeilingNone
Temp21°C (ISA +6)
Dew Point14°C (64% RH)
AAT20.1°C
QNH1012 hPa
Density Alt1,181 ft
Elevation190 ft
Report Wrong Elevation
Raw Report
METAR KOVE 251253Z AUTO 16006KT 10SM CLR 21/14 A2988 RMK AO2 SLP120
T02110144 TSNO=

Extra information for KOVE:More info

Metar Taf Metar & Taf Last 4 Metars F.Rules Stats Wind Profile Meteogram Temp Stats Airport Information Weather charts Add Link Nearby VenuesMetar ALERT Operation Metar Decoded Social comments

AIRNAV info for KOVE